sensor_id;sensor_type;location;lat;lon;timestamp;temperature;humidity
33095;DHT22;19459;53.044;8.910;2023-07-29T00:02:10;18.40;99.90
33095;DHT22;19459;53.044;8.910;2023-07-29T00:04:36;18.40;99.90
33095;DHT22;19459;53.044;8.910;2023-07-29T00:07:02;18.40;99.90
33095;DHT22;19459;53.044;8.910;2023-07-29T00:09:28;18.40;99.90
33095;DHT22;19459;53.044;8.910;2023-07-29T00:11:54;18.40;99.90
33095;DHT22;19459;53.044;8.910;2023-07-29T00:14:20;18.30;99.90
33095;DHT22;19459;53.044;8.910;2023-07-29T00:16:45;18.30;99.90
33095;DHT22;19459;53.044;8.910;2023-07-29T00:19:12;18.30;99.90
33095;DHT22;19459;53.044;8.910;2023-07-29T00:21:38;18.30;99.90
33095;DHT22;19459;53.044;8.910;2023-07-29T00:24:06;18.20;99.90
33095;DHT22;19459;53.044;8.910;2023-07-29T00:26:34;18.10;99.90
33095;DHT22;19459;53.044;8.910;2023-07-29T00:29:00;18.10;99.90
33095;DHT22;19459;53.044;8.910;2023-07-29T00:31:26;18.00;99.90
33095;DHT22;19459;53.044;8.910;2023-07-29T00:33:52;18.00;99.90
33095;DHT22;19459;53.044;8.910;2023-07-29T00:36:18;18.00;99.90
33095;DHT22;19459;53.044;8.910;2023-07-29T00:38:45;18.00;99.90
33095;DHT22;19459;53.044;8.910;2023-07-29T00:41:11;18.10;99.90
33095;DHT22;19459;53.044;8.910;2023-07-29T00:43:38;18.10;99.90
33095;DHT22;19459;53.044;8.910;2023-07-29T00:46:04;18.10;99.90
33095;DHT22;19459;53.044;8.910;2023-07-29T00:48:31;18.10;99.90
33095;DHT22;19459;53.044;8.910;2023-07-29T00:50:57;18.10;99.90
33095;DHT22;19459;53.044;8.910;2023-07-29T00:53:22;18.10;99.90
33095;DHT22;19459;53.044;8.910;2023-07-29T00:55:50;18.10;99.90
33095;DHT22;19459;53.044;8.910;2023-07-29T00:58:15;18.10;99.90
33095;DHT22;19459;53.044;8.910;2023-07-29T01:00:41;18.10;99.90
33095;DHT22;19459;53.044;8.910;2023-07-29T01:03:08;18.00;99.90
33095;DHT22;19459;53.044;8.910;2023-07-29T01:05:41;17.90;99.90
33095;DHT22;19459;53.044;8.910;2023-07-29T01:08:27;17.90;99.90
33095;DHT22;19459;53.044;8.910;2023-07-29T01:11:28;17.80;99.90
33095;DHT22;19459;53.044;8.910;2023-07-29T01:17:09;17.80;99.90
33095;DHT22;19459;53.044;8.910;2023-07-29T01:20:11;17.70;99.90
33095;DHT22;19459;53.044;8.910;2023-07-29T01:22:40;17.60;99.90
33095;DHT22;19459;53.044;8.910;2023-07-29T01:25:08;17.60;99.90
33095;DHT22;19459;53.044;8.910;2023-07-29T01:27:34;17.60;99.90
33095;DHT22;19459;53.044;8.910;2023-07-29T01:30:01;17.60;99.90
33095;DHT22;19459;53.044;8.910;2023-07-29T01:38:01;17.70;99.90
33095;DHT22;19459;53.044;8.910;2023-07-29T01:40:29;17.70;99.90
33095;DHT22;19459;53.044;8.910;2023-07-29T01:42:55;17.70;99.90
33095;DHT22;19459;53.044;8.910;2023-07-29T01:45:25;17.70;99.90
33095;DHT22;19459;53.044;8.910;2023-07-29T01:47:52;17.70;99.90
33095;DHT22;19459;53.044;8.910;2023-07-29T01:50:18;17.70;99.90
33095;DHT22;19459;53.044;8.910;2023-07-29T01:52:44;17.60;99.90
33095;DHT22;19459;53.044;8.910;2023-07-29T01:55:10;17.60;99.90
33095;DHT22;19459;53.044;8.910;2023-07-29T01:57:36;17.60;99.90
33095;DHT22;19459;53.044;8.910;2023-07-29T02:00:02;17.50;99.90
33095;DHT22;19459;53.044;8.910;2023-07-29T02:02:29;17.50;99.90
33095;DHT22;19459;53.044;8.910;2023-07-29T02:04:55;17.50;99.90
33095;DHT22;19459;53.044;8.910;2023-07-29T02:07:21;17.40;99.90
33095;DHT22;19459;53.044;8.910;2023-07-29T02:09:47;17.40;99.90
33095;DHT22;19459;53.044;8.910;2023-07-29T02:12:13;17.40;99.90
33095;DHT22;19459;53.044;8.910;2023-07-29T02:14:39;17.40;99.90
33095;DHT22;19459;53.044;8.910;2023-07-29T02:17:05;17.30;99.90
33095;DHT22;19459;53.044;8.910;2023-07-29T02:19:31;17.30;99.90
33095;DHT22;19459;53.044;8.910;2023-07-29T02:21:57;17.40;99.90
33095;DHT22;19459;53.044;8.910;2023-07-29T02:24:23;17.30;99.90
33095;DHT22;19459;53.044;8.910;2023-07-29T02:26:50;17.30;99.90
33095;DHT22;19459;53.044;8.910;2023-07-29T02:29:16;17.30;99.90
33095;DHT22;19459;53.044;8.910;2023-07-29T02:31:42;17.20;99.90
33095;DHT22;19459;53.044;8.910;2023-07-29T02:34:10;17.20;99.90
33095;DHT22;19459;53.044;8.910;2023-07-29T02:36:35;17.20;99.90
33095;DHT22;19459;53.044;8.910;2023-07-29T02:39:01;17.20;99.90
33095;DHT22;19459;53.044;8.910;2023-07-29T02:41:27;17.20;99.90
33095;DHT22;19459;53.044;8.910;2023-07-29T02:43:53;17.10;99.90
33095;DHT22;19459;53.044;8.910;2023-07-29T02:46:18;17.10;99.90
33095;DHT22;19459;53.044;8.910;2023-07-29T02:48:45;17.10;99.90
33095;DHT22;19459;53.044;8.910;2023-07-29T02:51:10;17.10;99.90
33095;DHT22;19459;53.044;8.910;2023-07-29T02:53:36;17.10;99.90
33095;DHT22;19459;53.044;8.910;2023-07-29T02:56:03;17.00;99.90
33095;DHT22;19459;53.044;8.910;2023-07-29T02:58:29;17.00;99.90
33095;DHT22;19459;53.044;8.910;2023-07-29T03:01:02;17.00;99.90
33095;DHT22;19459;53.044;8.910;2023-07-29T03:03:29;16.90;99.90
33095;DHT22;19459;53.044;8.910;2023-07-29T03:06:06;16.90;99.90
33095;DHT22;19459;53.044;8.910;2023-07-29T03:08:34;16.90;99.90
33095;DHT22;19459;53.044;8.910;2023-07-29T03:11:06;16.80;99.90
33095;DHT22;19459;53.044;8.910;2023-07-29T03:13:33;16.90;99.90
33095;DHT22;19459;53.044;8.910;2023-07-29T03:16:13;16.90;99.90
33095;DHT22;19459;53.044;8.910;2023-07-29T03:18:41;16.90;99.90
33095;DHT22;19459;53.044;8.910;2023-07-29T03:21:08;16.90;99.90
33095;DHT22;19459;53.044;8.910;2023-07-29T03:23:34;16.80;99.90
33095;DHT22;19459;53.044;8.910;2023-07-29T03:26:02;16.90;99.90
33095;DHT22;19459;53.044;8.910;2023-07-29T03:28:35;16.80;99.90
33095;DHT22;19459;53.044;8.910;2023-07-29T03:31:03;16.80;99.90
33095;DHT22;19459;53.044;8.910;2023-07-29T03:33:28;16.90;99.90
33095;DHT22;19459;53.044;8.910;2023-07-29T03:35:55;16.90;99.90
33095;DHT22;19459;53.044;8.910;2023-07-29T03:38:20;16.90;99.90
33095;DHT22;19459;53.044;8.910;2023-07-29T03:40:46;16.90;99.90
33095;DHT22;19459;53.044;8.910;2023-07-29T03:43:12;16.90;99.90
33095;DHT22;19459;53.044;8.910;2023-07-29T03:45:39;16.90;99.90
33095;DHT22;19459;53.044;8.910;2023-07-29T03:48:05;16.90;99.90
33095;DHT22;19459;53.044;8.910;2023-07-29T03:50:34;16.90;99.90
33095;DHT22;19459;53.044;8.910;2023-07-29T03:53:04;16.90;99.90
33095;DHT22;19459;53.044;8.910;2023-07-29T03:55:31;16.90;99.90
33095;DHT22;19459;53.044;8.910;2023-07-29T03:57:58;16.90;99.90
33095;DHT22;19459;53.044;8.910;2023-07-29T04:00:24;16.90;99.90
33095;DHT22;19459;53.044;8.910;2023-07-29T04:02:50;16.90;99.90
33095;DHT22;19459;53.044;8.910;2023-07-29T04:05:17;16.90;99.90
33095;DHT22;19459;53.044;8.910;2023-07-29T04:07:43;16.90;99.90
33095;DHT22;19459;53.044;8.910;2023-07-29T04:10:09;16.90;99.90
33095;DHT22;19459;53.044;8.910;2023-07-29T04:12:35;17.00;99.90
33095;DHT22;19459;53.044;8.910;2023-07-29T04:15:01;17.00;99.90
33095;DHT22;19459;53.044;8.910;2023-07-29T04:17:28;17.00;99.90
33095;DHT22;19459;53.044;8.910;2023-07-29T04:19:54;17.00;99.90
33095;DHT22;19459;53.044;8.910;2023-07-29T04:22:20;17.10;99.90
33095;DHT22;19459;53.044;8.910;2023-07-29T04:24:46;17.10;99.90
33095;DHT22;19459;53.044;8.910;2023-07-29T04:27:12;17.20;99.90
33095;DHT22;19459;53.044;8.910;2023-07-29T04:29:38;17.20;99.90
33095;DHT22;19459;53.044;8.910;2023-07-29T04:32:05;17.20;99.90
33095;DHT22;19459;53.044;8.910;2023-07-29T04:34:31;17.20;99.90
33095;DHT22;19459;53.044;8.910;2023-07-29T04:36:57;17.20;99.90
33095;DHT22;19459;53.044;8.910;2023-07-29T04:39:23;17.20;99.90
33095;DHT22;19459;53.044;8.910;2023-07-29T04:41:49;17.30;99.90
33095;DHT22;19459;53.044;8.910;2023-07-29T04:44:15;17.30;99.90
33095;DHT22;19459;53.044;8.910;2023-07-29T04:46:41;17.30;99.90
33095;DHT22;19459;53.044;8.910;2023-07-29T04:49:07;17.40;99.90
33095;DHT22;19459;53.044;8.910;2023-07-29T04:51:33;17.30;99.90
33095;DHT22;19459;53.044;8.910;2023-07-29T04:53:59;17.40;99.90
33095;DHT22;19459;53.044;8.910;2023-07-29T04:56:25;17.40;99.90
33095;DHT22;19459;53.044;8.910;2023-07-29T04:58:51;17.50;99.90
33095;DHT22;19459;53.044;8.910;2023-07-29T05:01:17;17.50;99.90
33095;DHT22;19459;53.044;8.910;2023-07-29T05:03:43;17.50;99.90
33095;DHT22;19459;53.044;8.910;2023-07-29T05:06:09;17.40;99.90
33095;DHT22;19459;53.044;8.910;2023-07-29T05:08:36;17.50;99.90
33095;DHT22;19459;53.044;8.910;2023-07-29T05:11:01;17.50;99.90
33095;DHT22;19459;53.044;8.910;2023-07-29T05:13:27;17.50;99.90
33095;DHT22;19459;53.044;8.910;2023-07-29T05:15:53;17.60;99.90
33095;DHT22;19459;53.044;8.910;2023-07-29T05:18:19;17.70;99.90
33095;DHT22;19459;53.044;8.910;2023-07-29T05:20:47;17.70;99.90
33095;DHT22;19459;53.044;8.910;2023-07-29T05:23:13;17.80;99.90
33095;DHT22;19459;53.044;8.910;2023-07-29T05:25:39;17.80;99.90
33095;DHT22;19459;53.044;8.910;2023-07-29T05:28:05;17.90;99.90
33095;DHT22;19459;53.044;8.910;2023-07-29T05:30:32;17.90;99.90
33095;DHT22;19459;53.044;8.910;2023-07-29T05:33:05;18.00;99.90
33095;DHT22;19459;53.044;8.910;2023-07-29T05:35:33;18.00;99.90
33095;DHT22;19459;53.044;8.910;2023-07-29T05:37:58;18.10;99.90
33095;DHT22;19459;53.044;8.910;2023-07-29T05:40:24;18.20;99.90
33095;DHT22;19459;53.044;8.910;2023-07-29T05:42:50;18.20;99.90
33095;DHT22;19459;53.044;8.910;2023-07-29T05:45:16;18.30;99.90
33095;DHT22;19459;53.044;8.910;2023-07-29T05:47:42;18.40;99.90
33095;DHT22;19459;53.044;8.910;2023-07-29T05:50:08;18.40;99.90
33095;DHT22;19459;53.044;8.910;2023-07-29T05:52:34;18.40;99.90
33095;DHT22;19459;53.044;8.910;2023-07-29T05:55:00;18.40;99.90
33095;DHT22;19459;53.044;8.910;2023-07-29T05:57:27;18.40;99.90
33095;DHT22;19459;53.044;8.910;2023-07-29T05:59:53;18.50;99.90
33095;DHT22;19459;53.044;8.910;2023-07-29T06:02:19;18.40;99.90
33095;DHT22;19459;53.044;8.910;2023-07-29T06:04:45;18.40;99.90
33095;DHT22;19459;53.044;8.910;2023-07-29T06:07:10;18.40;99.90
33095;DHT22;19459;53.044;8.910;2023-07-29T06:09:36;18.50;99.90
33095;DHT22;19459;53.044;8.910;2023-07-29T06:12:02;18.50;99.90
33095;DHT22;19459;53.044;8.910;2023-07-29T06:14:28;18.60;99.90
33095;DHT22;19459;53.044;8.910;2023-07-29T06:16:54;18.60;99.90
33095;DHT22;19459;53.044;8.910;2023-07-29T06:19:20;18.60;99.90
33095;DHT22;19459;53.044;8.910;2023-07-29T06:21:46;18.60;99.90
33095;DHT22;19459;53.044;8.910;2023-07-29T06:24:12;18.60;99.90
33095;DHT22;19459;53.044;8.910;2023-07-29T06:26:38;18.70;99.90
33095;DHT22;19459;53.044;8.910;2023-07-29T06:29:06;18.80;99.90
33095;DHT22;19459;53.044;8.910;2023-07-29T06:31:32;18.80;99.90
33095;DHT22;19459;53.044;8.910;2023-07-29T06:33:58;18.80;99.90
33095;DHT22;19459;53.044;8.910;2023-07-29T06:36:24;18.90;99.90
33095;DHT22;19459;53.044;8.910;2023-07-29T06:38:50;18.80;99.90
33095;DHT22;19459;53.044;8.910;2023-07-29T06:41:16;18.80;99.90
33095;DHT22;19459;53.044;8.910;2023-07-29T06:43:41;18.90;99.90
33095;DHT22;19459;53.044;8.910;2023-07-29T06:46:07;18.90;99.90
33095;DHT22;19459;53.044;8.910;2023-07-29T06:48:33;19.00;99.90
33095;DHT22;19459;53.044;8.910;2023-07-29T06:50:59;19.00;99.90
33095;DHT22;19459;53.044;8.910;2023-07-29T06:53:26;19.10;99.90
33095;DHT22;19459;53.044;8.910;2023-07-29T06:55:52;19.10;99.90
33095;DHT22;19459;53.044;8.910;2023-07-29T06:58:19;19.10;99.90
33095;DHT22;19459;53.044;8.910;2023-07-29T07:00:45;19.20;99.90
33095;DHT22;19459;53.044;8.910;2023-07-29T07:03:10;19.20;99.90
33095;DHT22;19459;53.044;8.910;2023-07-29T07:05:36;19.20;99.90
33095;DHT22;19459;53.044;8.910;2023-07-29T07:08:02;19.30;99.90
33095;DHT22;19459;53.044;8.910;2023-07-29T07:10:28;19.40;99.90
33095;DHT22;19459;53.044;8.910;2023-07-29T07:12:54;19.40;99.90
33095;DHT22;19459;53.044;8.910;2023-07-29T07:15:20;19.40;99.90
33095;DHT22;19459;53.044;8.910;2023-07-29T07:17:45;19.40;99.90
33095;DHT22;19459;53.044;8.910;2023-07-29T07:20:11;19.40;99.90
33095;DHT22;19459;53.044;8.910;2023-07-29T07:22:37;19.40;99.90
33095;DHT22;19459;53.044;8.910;2023-07-29T07:25:03;19.50;99.90
33095;DHT22;19459;53.044;8.910;2023-07-29T07:27:29;19.40;99.90
33095;DHT22;19459;53.044;8.910;2023-07-29T07:29:55;19.50;99.90
33095;DHT22;19459;53.044;8.910;2023-07-29T07:32:20;19.50;99.90
33095;DHT22;19459;53.044;8.910;2023-07-29T07:34:46;19.40;99.90
33095;DHT22;19459;53.044;8.910;2023-07-29T07:37:12;19.40;99.90
33095;DHT22;19459;53.044;8.910;2023-07-29T07:39:38;19.40;99.90
33095;DHT22;19459;53.044;8.910;2023-07-29T07:42:04;19.40;99.90
33095;DHT22;19459;53.044;8.910;2023-07-29T07:44:30;19.40;99.90
33095;DHT22;19459;53.044;8.910;2023-07-29T07:46:55;19.40;99.90
33095;DHT22;19459;53.044;8.910;2023-07-29T07:49:22;19.40;99.90
33095;DHT22;19459;53.044;8.910;2023-07-29T07:51:48;19.40;99.90
33095;DHT22;19459;53.044;8.910;2023-07-29T07:54:13;19.40;99.90
33095;DHT22;19459;53.044;8.910;2023-07-29T07:56:39;19.40;99.90
33095;DHT22;19459;53.044;8.910;2023-07-29T07:59:05;19.50;99.90
33095;DHT22;19459;53.044;8.910;2023-07-29T08:01:38;19.50;99.90
33095;DHT22;19459;53.044;8.910;2023-07-29T08:04:05;19.50;99.90
33095;DHT22;19459;53.044;8.910;2023-07-29T08:06:31;19.60;99.90
33095;DHT22;19459;53.044;8.910;2023-07-29T08:08:58;19.60;99.90
33095;DHT22;19459;53.044;8.910;2023-07-29T08:11:23;19.70;99.90
33095;DHT22;19459;53.044;8.910;2023-07-29T08:13:49;19.80;99.90
33095;DHT22;19459;53.044;8.910;2023-07-29T08:16:15;19.90;99.90
33095;DHT22;19459;53.044;8.910;2023-07-29T08:18:41;19.90;99.90
33095;DHT22;19459;53.044;8.910;2023-07-29T08:21:07;20.00;99.90
33095;DHT22;19459;53.044;8.910;2023-07-29T08:23:34;20.00;99.90
33095;DHT22;19459;53.044;8.910;2023-07-29T08:26:03;20.10;99.90
33095;DHT22;19459;53.044;8.910;2023-07-29T08:28:32;20.10;99.90
33095;DHT22;19459;53.044;8.910;2023-07-29T08:31:03;20.30;99.90
33095;DHT22;19459;53.044;8.910;2023-07-29T08:33:30;20.50;99.90
33095;DHT22;19459;53.044;8.910;2023-07-29T08:35:56;20.80;99.90
33095;DHT22;19459;53.044;8.910;2023-07-29T08:38:22;20.90;99.90
33095;DHT22;19459;53.044;8.910;2023-07-29T08:41:12;21.00;99.90
33095;DHT22;19459;53.044;8.910;2023-07-29T08:43:44;20.80;99.90
33095;DHT22;19459;53.044;8.910;2023-07-29T08:46:19;20.90;99.90
33095;DHT22;19459;53.044;8.910;2023-07-29T08:48:46;20.90;99.90
33095;DHT22;19459;53.044;8.910;2023-07-29T08:51:12;20.90;99.90
33095;DHT22;19459;53.044;8.910;2023-07-29T08:53:39;20.80;99.90
33095;DHT22;19459;53.044;8.910;2023-07-29T08:56:05;20.80;99.90
33095;DHT22;19459;53.044;8.910;2023-07-29T08:58:33;20.80;99.90
33095;DHT22;19459;53.044;8.910;2023-07-29T09:00:59;20.80;99.90
33095;DHT22;19459;53.044;8.910;2023-07-29T09:03:25;20.90;99.90
33095;DHT22;19459;53.044;8.910;2023-07-29T09:05:52;20.80;99.90
33095;DHT22;19459;53.044;8.910;2023-07-29T09:08:19;20.90;99.90
33095;DHT22;19459;53.044;8.910;2023-07-29T09:10:46;20.90;99.90
33095;DHT22;19459;53.044;8.910;2023-07-29T09:13:12;21.20;99.90
33095;DHT22;19459;53.044;8.910;2023-07-29T09:15:39;21.20;99.90
33095;DHT22;19459;53.044;8.910;2023-07-29T09:18:14;21.10;99.90
33095;DHT22;19459;53.044;8.910;2023-07-29T09:20:42;21.20;99.90
33095;DHT22;19459;53.044;8.910;2023-07-29T09:23:09;21.30;99.90
33095;DHT22;19459;53.044;8.910;2023-07-29T09:25:37;21.40;99.90
33095;DHT22;19459;53.044;8.910;2023-07-29T09:28:11;21.50;99.90
33095;DHT22;19459;53.044;8.910;2023-07-29T09:30:39;21.60;99.90
33095;DHT22;19459;53.044;8.910;2023-07-29T09:33:06;21.50;99.90
33095;DHT22;19459;53.044;8.910;2023-07-29T09:35:35;21.60;99.90
33095;DHT22;19459;53.044;8.910;2023-07-29T09:38:05;21.50;99.90
33095;DHT22;19459;53.044;8.910;2023-07-29T09:40:39;21.60;99.90
33095;DHT22;19459;53.044;8.910;2023-07-29T09:43:05;21.60;99.90
33095;DHT22;19459;53.044;8.910;2023-07-29T09:45:36;21.80;99.90
33095;DHT22;19459;53.044;8.910;2023-07-29T09:48:04;22.00;99.90
33095;DHT22;19459;53.044;8.910;2023-07-29T09:50:34;22.00;99.90
33095;DHT22;19459;53.044;8.910;2023-07-29T09:53:03;22.10;99.90
33095;DHT22;19459;53.044;8.910;2023-07-29T09:55:32;22.00;99.90
33095;DHT22;19459;53.044;8.910;2023-07-29T09:57:59;22.20;99.90
33095;DHT22;19459;53.044;8.910;2023-07-29T10:00:33;22.50;99.90
33095;DHT22;19459;53.044;8.910;2023-07-29T10:03:00;22.50;99.90
33095;DHT22;19459;53.044;8.910;2023-07-29T10:05:27;22.30;99.90
33095;DHT22;19459;53.044;8.910;2023-07-29T10:07:54;22.20;99.90
33095;DHT22;19459;53.044;8.910;2023-07-29T10:10:20;22.40;99.90
33095;DHT22;19459;53.044;8.910;2023-07-29T10:12:47;22.50;99.90
33095;DHT22;19459;53.044;8.910;2023-07-29T10:15:13;22.90;99.90
33095;DHT22;19459;53.044;8.910;2023-07-29T10:17:41;23.10;99.90
33095;DHT22;19459;53.044;8.910;2023-07-29T10:20:10;23.80;99.90
33095;DHT22;19459;53.044;8.910;2023-07-29T10:22:41;24.40;99.90
33095;DHT22;19459;53.044;8.910;2023-07-29T10:25:11;24.20;99.90
33095;DHT22;19459;53.044;8.910;2023-07-29T10:27:47;24.20;99.90
33095;DHT22;19459;53.044;8.910;2023-07-29T10:30:15;24.80;99.90
33095;DHT22;19459;53.044;8.910;2023-07-29T10:32:42;24.60;99.90
33095;DHT22;19459;53.044;8.910;2023-07-29T10:35:11;24.60;99.90
33095;DHT22;19459;53.044;8.910;2023-07-29T10:37:38;24.70;99.90
33095;DHT22;19459;53.044;8.910;2023-07-29T10:40:06;24.10;99.90
33095;DHT22;19459;53.044;8.910;2023-07-29T10:42:37;23.70;99.90
33095;DHT22;19459;53.044;8.910;2023-07-29T10:45:20;23.50;99.90
33095;DHT22;19459;53.044;8.910;2023-07-29T10:47:47;23.40;99.90
33095;DHT22;19459;53.044;8.910;2023-07-29T10:50:18;23.40;99.90
33095;DHT22;19459;53.044;8.910;2023-07-29T10:52:52;23.40;99.90
33095;DHT22;19459;53.044;8.910;2023-07-29T10:55:28;23.20;99.90
33095;DHT22;19459;53.044;8.910;2023-07-29T11:00:42;22.70;99.90
33095;DHT22;19459;53.044;8.910;2023-07-29T11:03:09;22.80;99.90
33095;DHT22;19459;53.044;8.910;2023-07-29T11:06:04;23.10;99.90
33095;DHT22;19459;53.044;8.910;2023-07-29T11:08:33;23.10;99.90
33095;DHT22;19459;53.044;8.910;2023-07-29T11:11:04;23.10;99.90
33095;DHT22;19459;53.044;8.910;2023-07-29T11:13:37;23.70;99.90
33095;DHT22;19459;53.044;8.910;2023-07-29T11:16:09;24.20;99.90
33095;DHT22;19459;53.044;8.910;2023-07-29T11:18:35;24.30;99.90
33095;DHT22;19459;53.044;8.910;2023-07-29T11:21:03;24.30;99.90
33095;DHT22;19459;53.044;8.910;2023-07-29T11:23:34;24.50;99.90
33095;DHT22;19459;53.044;8.910;2023-07-29T11:26:03;24.60;99.90
33095;DHT22;19459;53.044;8.910;2023-07-29T11:28:29;24.60;99.90
33095;DHT22;19459;53.044;8.910;2023-07-29T11:30:56;23.90;99.90
33095;DHT22;19459;53.044;8.910;2023-07-29T11:33:27;23.60;99.90
33095;DHT22;19459;53.044;8.910;2023-07-29T11:35:54;23.40;99.90
33095;DHT22;19459;53.044;8.910;2023-07-29T11:38:21;23.30;99.90
33095;DHT22;19459;53.044;8.910;2023-07-29T11:40:55;23.30;99.90
33095;DHT22;19459;53.044;8.910;2023-07-29T11:43:25;23.40;99.90
33095;DHT22;19459;53.044;8.910;2023-07-29T11:45:52;23.40;99.90
33095;DHT22;19459;53.044;8.910;2023-07-29T11:48:30;23.40;99.90
33095;DHT22;19459;53.044;8.910;2023-07-29T11:51:00;23.20;99.90
33095;DHT22;19459;53.044;8.910;2023-07-29T11:53:32;23.20;99.90
33095;DHT22;19459;53.044;8.910;2023-07-29T11:55:58;23.10;99.90
33095;DHT22;19459;53.044;8.910;2023-07-29T11:58:27;23.00;99.90
33095;DHT22;19459;53.044;8.910;2023-07-29T12:00:55;23.00;99.90
33095;DHT22;19459;53.044;8.910;2023-07-29T12:03:28;23.30;99.90
33095;DHT22;19459;53.044;8.910;2023-07-29T12:06:01;23.30;99.90
33095;DHT22;19459;53.044;8.910;2023-07-29T12:08:27;23.40;99.90
33095;DHT22;19459;53.044;8.910;2023-07-29T12:10:53;23.10;99.90
33095;DHT22;19459;53.044;8.910;2023-07-29T12:13:24;23.10;99.90
33095;DHT22;19459;53.044;8.910;2023-07-29T12:15:50;23.70;99.90
33095;DHT22;19459;53.044;8.910;2023-07-29T12:18:16;24.30;99.90
33095;DHT22;19459;53.044;8.910;2023-07-29T12:20:43;24.80;99.90
33095;DHT22;19459;53.044;8.910;2023-07-29T12:23:08;25.30;99.90
33095;DHT22;19459;53.044;8.910;2023-07-29T12:25:35;25.10;99.90
33095;DHT22;19459;53.044;8.910;2023-07-29T12:28:06;24.90;99.90
33095;DHT22;19459;53.044;8.910;2023-07-29T12:30:32;25.00;99.90
33095;DHT22;19459;53.044;8.910;2023-07-29T12:32:58;24.80;99.90
33095;DHT22;19459;53.044;8.910;2023-07-29T12:35:25;25.20;99.90
33095;DHT22;19459;53.044;8.910;2023-07-29T12:38:03;25.70;99.90
33095;DHT22;19459;53.044;8.910;2023-07-29T12:40:28;26.50;99.90
33095;DHT22;19459;53.044;8.910;2023-07-29T12:42:55;26.40;99.90
33095;DHT22;19459;53.044;8.910;2023-07-29T12:45:21;26.70;99.90
33095;DHT22;19459;53.044;8.910;2023-07-29T12:47:51;27.00;99.90
33095;DHT22;19459;53.044;8.910;2023-07-29T12:50:17;27.00;97.80
33095;DHT22;19459;53.044;8.910;2023-07-29T12:52:43;26.70;97.80
33095;DHT22;19459;53.044;8.910;2023-07-29T12:55:09;25.70;99.60
33095;DHT22;19459;53.044;8.910;2023-07-29T12:57:39;25.90;99.90
33095;DHT22;19459;53.044;8.910;2023-07-29T13:00:07;26.10;99.90
33095;DHT22;19459;53.044;8.910;2023-07-29T13:02:34;26.00;99.90
33095;DHT22;19459;53.044;8.910;2023-07-29T13:05:00;25.90;99.90
33095;DHT22;19459;53.044;8.910;2023-07-29T13:07:26;26.20;99.90
33095;DHT22;19459;53.044;8.910;2023-07-29T13:09:51;26.50;99.90
33095;DHT22;19459;53.044;8.910;2023-07-29T13:12:17;26.90;99.00
33095;DHT22;19459;53.044;8.910;2023-07-29T13:14:43;27.20;99.70
33095;DHT22;19459;53.044;8.910;2023-07-29T13:17:09;27.30;98.00
33095;DHT22;19459;53.044;8.910;2023-07-29T13:19:34;27.30;97.80
33095;DHT22;19459;53.044;8.910;2023-07-29T13:22:00;27.60;99.20
33095;DHT22;19459;53.044;8.910;2023-07-29T13:24:27;27.40;97.70
33095;DHT22;19459;53.044;8.910;2023-07-29T13:26:53;27.30;97.30
33095;DHT22;19459;53.044;8.910;2023-07-29T13:29:19;26.60;98.10
33095;DHT22;19459;53.044;8.910;2023-07-29T13:31:45;26.80;98.50
33095;DHT22;19459;53.044;8.910;2023-07-29T13:34:11;27.00;98.70
33095;DHT22;19459;53.044;8.910;2023-07-29T13:36:36;27.10;99.60
33095;DHT22;19459;53.044;8.910;2023-07-29T13:39:02;27.40;98.30
33095;DHT22;19459;53.044;8.910;2023-07-29T13:41:28;27.60;97.70
33095;DHT22;19459;53.044;8.910;2023-07-29T13:43:53;27.70;99.10
33095;DHT22;19459;53.044;8.910;2023-07-29T13:46:19;27.90;98.10
33095;DHT22;19459;53.044;8.910;2023-07-29T13:48:46;27.10;97.00
33095;DHT22;19459;53.044;8.910;2023-07-29T13:51:15;26.60;98.80
33095;DHT22;19459;53.044;8.910;2023-07-29T13:53:41;26.10;99.30
33095;DHT22;19459;53.044;8.910;2023-07-29T13:56:06;26.10;99.90
33095;DHT22;19459;53.044;8.910;2023-07-29T13:58:32;26.10;99.90
33095;DHT22;19459;53.044;8.910;2023-07-29T14:00:58;26.00;99.90
33095;DHT22;19459;53.044;8.910;2023-07-29T14:03:24;25.70;99.90
33095;DHT22;19459;53.044;8.910;2023-07-29T14:05:50;25.40;99.90
33095;DHT22;19459;53.044;8.910;2023-07-29T14:08:15;25.20;99.90
33095;DHT22;19459;53.044;8.910;2023-07-29T14:10:41;25.30;99.90
33095;DHT22;19459;53.044;8.910;2023-07-29T14:13:07;25.90;99.90
33095;DHT22;19459;53.044;8.910;2023-07-29T14:15:33;26.20;99.90
33095;DHT22;19459;53.044;8.910;2023-07-29T14:17:58;26.60;98.70
33095;DHT22;19459;53.044;8.910;2023-07-29T14:20:24;27.00;99.70
33095;DHT22;19459;53.044;8.910;2023-07-29T14:22:50;26.90;98.00
33095;DHT22;19459;53.044;8.910;2023-07-29T14:25:16;26.60;98.40
33095;DHT22;19459;53.044;8.910;2023-07-29T14:27:42;26.70;98.60
33095;DHT22;19459;53.044;8.910;2023-07-29T14:30:08;26.90;98.10
33095;DHT22;19459;53.044;8.910;2023-07-29T14:32:34;27.00;97.50
33095;DHT22;19459;53.044;8.910;2023-07-29T14:34:59;26.50;98.00
33095;DHT22;19459;53.044;8.910;2023-07-29T14:37:29;26.00;98.50
33095;DHT22;19459;53.044;8.910;2023-07-29T14:39:59;26.10;99.90
33095;DHT22;19459;53.044;8.910;2023-07-29T14:42:26;26.20;99.90
33095;DHT22;19459;53.044;8.910;2023-07-29T14:44:52;25.90;99.80
33095;DHT22;19459;53.044;8.910;2023-07-29T14:47:18;25.70;99.80
33095;DHT22;19459;53.044;8.910;2023-07-29T14:49:45;25.50;99.90
33095;DHT22;19459;53.044;8.910;2023-07-29T14:52:11;25.90;99.90
33095;DHT22;19459;53.044;8.910;2023-07-29T14:54:37;25.90;99.90
33095;DHT22;19459;53.044;8.910;2023-07-29T14:57:04;26.10;99.90
33095;DHT22;19459;53.044;8.910;2023-07-29T14:59:31;26.40;99.90
33095;DHT22;19459;53.044;8.910;2023-07-29T15:01:57;26.20;99.10
33095;DHT22;19459;53.044;8.910;2023-07-29T15:04:23;26.00;99.90
33095;DHT22;19459;53.044;8.910;2023-07-29T15:06:49;26.10;99.90
33095;DHT22;19459;53.044;8.910;2023-07-29T15:09:15;26.10;99.50
33095;DHT22;19459;53.044;8.910;2023-07-29T15:11:41;26.10;99.80
33095;DHT22;19459;53.044;8.910;2023-07-29T15:14:07;26.20;98.50
33095;DHT22;19459;53.044;8.910;2023-07-29T15:16:32;26.40;99.20
33095;DHT22;19459;53.044;8.910;2023-07-29T15:19:03;25.80;99.90
33095;DHT22;19459;53.044;8.910;2023-07-29T15:21:32;25.20;99.90
33095;DHT22;19459;53.044;8.910;2023-07-29T15:24:00;24.80;99.90
33095;DHT22;19459;53.044;8.910;2023-07-29T15:26:26;24.40;99.90
33095;DHT22;19459;53.044;8.910;2023-07-29T15:28:52;24.20;99.90
33095;DHT22;19459;53.044;8.910;2023-07-29T15:31:17;23.90;99.90
33095;DHT22;19459;53.044;8.910;2023-07-29T15:33:43;23.70;99.90
33095;DHT22;19459;53.044;8.910;2023-07-29T15:36:09;23.50;99.90
33095;DHT22;19459;53.044;8.910;2023-07-29T15:38:35;23.20;99.90
33095;DHT22;19459;53.044;8.910;2023-07-29T15:41:01;23.00;99.90
33095;DHT22;19459;53.044;8.910;2023-07-29T15:43:26;22.90;99.90